Hovedside
METAR-TAF:

METAR-TAF

Lufthavner :

Adana, Tyrkia

breddegrad: 36-59N, lengdegrad: 035-18E, høyde over havet: 20 m

Gjeldene værobservasjon

Denne rapporten ble laget for 18 minutter siden, klokken 03:20 UTC
Vind 3 kt fra Nord
Temperatur 3°C
Luftfuktighet 70%
Trykk 1021 hPa
Sikt 10 km eller mer
ingen skyer under 1500 m og ingen bygeskyer

METAR: LTAF 290320Z 01003KT CAVOK 03/M02 Q1021 NOSIG

Tid: 06:38 (03:38 UTC)


TAF: fraværende

Værobservasjoner og værvarsel for over 4000 flyplasser (METAR- og TAF-rapporter).

Tilgjengelige stasjoner er representert av de røde og gule prikkene på kartet.

Hold musepekeren over prikken for å se navnet på stasjonen.

Klikk så for å se værobservasjoner og -varsler.

For å forandre kartet kan du klikke på den grønne knappen med svart kryss for å zoome inn, på den grønne knappen med strek for å zoome ut, eller på de grønne pilene for å se tilstøtende kart.


METAR-TAF: